Phu Quoc Airport
VVPQ : now visible

Airfield :











YOU CAN JOIN US ON...

 
LOGIN :

Register | Disclaimer

   EN    FR    IT 

 









Legend :    VFR   Marginal VFR   IFR   Intensive IFR   Very Intensive IFR
Visi :
Ceiling :
>= 8 km
>= 3000ft
5 to 8 km
1000 to 3000 ft
1500m to 5 km
500 to 1000 ft
800 to 1500m
200 to 500 ft
< 800m
< 200 ft
Symbols :   Thunderstorms  Fog  Heavy snow  Heavy precipitations  Wind > 20 kt






- Airport Elevation : 23 ft
- IATA code : PQC


VVPQ - Phu Quoc

CURRENT METAR :
  • 150830Z 31004KT 280V350 9999 SCT015 SCT040 29/25 Q1005 NOSIG

EXPIRED METARs :
  • 150800Z 29005KT 250V350 9999 SCT015 30/24 Q1005 NOSIG
  • 150730Z 30008KT 270V330 9999 VCSH SCT015 FEW017CB 31/25 Q1006 NOSIG CB/NE
  • 150700Z 27010KT 230V300 9999 SCT015 FEW017CB 32/26 Q1006 NOSIG CB/NE
  • 150630Z 27009KT 9999 SCT015 FEW017TCU 32/25 Q1006 NOSIG TCU/SW
  • 150600Z 27009KT 9999 SCT015 31/25 Q1006 NOSIG

TAF TAF VVPQ
Valid from the 15 at 06:00 until the 16 at 06:00 UTC


150500Z 1506/1606 27010KT 9999 SCT017 SCT040
TEMPO 1508/1513 5000 TSRA BKN015 FEW017CB
TEMPO 1600/1606 5000 TSRA BKN015 FEW017CB



MET'MAP, your aeronautical weather chart ! - Copyright ORBIFLY December 2007 - Disclaimer

ORBIFLY MET'MAP TEAM :

Programming & Development : Alexandra Zaïnal
Concept & original design : Baudouin d'Aumeries
Assistance for programming : Marc-Olivier Méhu
Technical & hardware support : Manuel Goepfert

Contact : metmap@orbifly.com




SOURCES & CREDITS :

   NOAA       Earth
Advisory